sensor_id;sensor_type;location;lat;lon;timestamp;pressure;altitude;pressure_sealevel;temperature;humidity
39141;BME280;24875;48.436;10.298;2022-08-02T00:00:07;96482.41;;;19.17;100.00
39141;BME280;24875;48.436;10.298;2022-08-02T00:02:33;96494.44;;;19.08;100.00
39141;BME280;24875;48.436;10.298;2022-08-02T00:05:00;96503.78;;;19.17;100.00
39141;BME280;24875;48.436;10.298;2022-08-02T00:07:28;96498.59;;;19.40;100.00
39141;BME280;24875;48.436;10.298;2022-08-02T00:09:54;96499.28;;;19.35;100.00
39141;BME280;24875;48.436;10.298;2022-08-02T00:12:21;96498.28;;;19.48;100.00
39141;BME280;24875;48.436;10.298;2022-08-02T00:14:48;96495.00;;;19.46;100.00
39141;BME280;24875;48.436;10.298;2022-08-02T00:17:15;96488.41;;;19.48;100.00
39141;BME280;24875;48.436;10.298;2022-08-02T00:19:41;96489.81;;;19.51;100.00
39141;BME280;24875;48.436;10.298;2022-08-02T00:22:08;96482.25;;;19.48;100.00
39141;BME280;24875;48.436;10.298;2022-08-02T00:24:35;96478.84;;;19.70;100.00
39141;BME280;24875;48.436;10.298;2022-08-02T00:27:02;96482.50;;;19.57;100.00
39141;BME280;24875;48.436;10.298;2022-08-02T00:29:29;96485.56;;;19.61;100.00
39141;BME280;24875;48.436;10.298;2022-08-02T00:31:56;96480.47;;;19.42;100.00
39141;BME280;24875;48.436;10.298;2022-08-02T00:34:22;96478.03;;;19.40;100.00
39141;BME280;24875;48.436;10.298;2022-08-02T00:36:49;96486.78;;;19.47;100.00
39141;BME280;24875;48.436;10.298;2022-08-02T00:39:15;96478.25;;;19.39;100.00
39141;BME280;24875;48.436;10.298;2022-08-02T00:41:48;96479.63;;;19.59;100.00
39141;BME280;24875;48.436;10.298;2022-08-02T00:44:16;96476.75;;;19.43;100.00
39141;BME280;24875;48.436;10.298;2022-08-02T00:46:43;96473.56;;;19.34;100.00
39141;BME280;24875;48.436;10.298;2022-08-02T00:49:10;96473.44;;;19.29;100.00
39141;BME280;24875;48.436;10.298;2022-08-02T00:51:37;96467.78;;;19.19;100.00
39141;BME280;24875;48.436;10.298;2022-08-02T00:54:04;96463.34;;;19.31;100.00
39141;BME280;24875;48.436;10.298;2022-08-02T00:56:30;96468.88;;;19.18;100.00
39141;BME280;24875;48.436;10.298;2022-08-02T00:58:58;96469.13;;;19.28;100.00
39141;BME280;24875;48.436;10.298;2022-08-02T01:01:25;96474.28;;;19.12;100.00
39141;BME280;24875;48.436;10.298;2022-08-02T01:04:04;96477.06;;;19.17;100.00
39141;BME280;24875;48.436;10.298;2022-08-02T01:06:31;96477.94;;;18.75;100.00
39141;BME280;24875;48.436;10.298;2022-08-02T01:08:58;96478.84;;;19.05;100.00
39141;BME280;24875;48.436;10.298;2022-08-02T01:11:25;96481.81;;;18.97;100.00
39141;BME280;24875;48.436;10.298;2022-08-02T01:13:51;96480.03;;;18.91;100.00
39141;BME280;24875;48.436;10.298;2022-08-02T01:16:22;96473.50;;;19.05;100.00
39141;BME280;24875;48.436;10.298;2022-08-02T01:18:54;96470.44;;;19.01;100.00
39141;BME280;24875;48.436;10.298;2022-08-02T01:21:34;96467.72;;;19.08;100.00
39141;BME280;24875;48.436;10.298;2022-08-02T01:24:17;96473.91;;;19.08;100.00
39141;BME280;24875;48.436;10.298;2022-08-02T01:26:49;96480.25;;;18.90;100.00
39141;BME280;24875;48.436;10.298;2022-08-02T01:29:22;96474.72;;;19.09;100.00
39141;BME280;24875;48.436;10.298;2022-08-02T01:31:56;96477.19;;;19.04;100.00
39141;BME280;24875;48.436;10.298;2022-08-02T01:34:29;96483.94;;;18.89;100.00
39141;BME280;24875;48.436;10.298;2022-08-02T01:37:01;96485.66;;;19.01;100.00
39141;BME280;24875;48.436;10.298;2022-08-02T01:39:30;96486.84;;;18.87;100.00
39141;BME280;24875;48.436;10.298;2022-08-02T01:42:00;96490.94;;;18.90;100.00
39141;BME280;24875;48.436;10.298;2022-08-02T01:44:32;96488.81;;;18.98;100.00
39141;BME280;24875;48.436;10.298;2022-08-02T01:47:02;96490.13;;;18.89;100.00
39141;BME280;24875;48.436;10.298;2022-08-02T01:49:31;96485.66;;;18.83;100.00
39141;BME280;24875;48.436;10.298;2022-08-02T01:52:00;96493.84;;;18.88;100.00
39141;BME280;24875;48.436;10.298;2022-08-02T01:54:49;96483.16;;;18.88;100.00
39141;BME280;24875;48.436;10.298;2022-08-02T01:57:19;96474.25;;;18.76;100.00
39141;BME280;24875;48.436;10.298;2022-08-02T01:59:48;96467.19;;;18.82;100.00
39141;BME280;24875;48.436;10.298;2022-08-02T02:02:16;96479.69;;;18.63;100.00
39141;BME280;24875;48.436;10.298;2022-08-02T02:04:44;96486.25;;;18.67;100.00
39141;BME280;24875;48.436;10.298;2022-08-02T02:07:12;96483.50;;;18.56;100.00
39141;BME280;24875;48.436;10.298;2022-08-02T02:09:40;96496.22;;;18.54;100.00
39141;BME280;24875;48.436;10.298;2022-08-02T02:12:10;96488.00;;;18.55;100.00
39141;BME280;24875;48.436;10.298;2022-08-02T02:14:38;96489.47;;;18.51;100.00
39141;BME280;24875;48.436;10.298;2022-08-02T02:17:07;96487.50;;;18.65;100.00
39141;BME280;24875;48.436;10.298;2022-08-02T02:19:36;96482.19;;;18.65;100.00
39141;BME280;24875;48.436;10.298;2022-08-02T02:22:03;96482.25;;;18.58;100.00
39141;BME280;24875;48.436;10.298;2022-08-02T02:24:30;96491.22;;;18.64;100.00
39141;BME280;24875;48.436;10.298;2022-08-02T02:26:57;96489.03;;;18.54;100.00
39141;BME280;24875;48.436;10.298;2022-08-02T02:29:27;96488.31;;;18.65;100.00
39141;BME280;24875;48.436;10.298;2022-08-02T02:31:56;96489.03;;;18.54;100.00
39141;BME280;24875;48.436;10.298;2022-08-02T02:34:27;96493.00;;;18.45;100.00
39141;BME280;24875;48.436;10.298;2022-08-02T02:36:55;96490.41;;;18.39;100.00
39141;BME280;24875;48.436;10.298;2022-08-02T02:39:24;96490.16;;;18.47;100.00
39141;BME280;24875;48.436;10.298;2022-08-02T02:41:54;96477.31;;;18.55;100.00
39141;BME280;24875;48.436;10.298;2022-08-02T02:44:22;96482.81;;;18.60;100.00
39141;BME280;24875;48.436;10.298;2022-08-02T02:46:52;96486.34;;;18.54;100.00
39141;BME280;24875;48.436;10.298;2022-08-02T02:49:20;96480.28;;;18.47;100.00
39141;BME280;24875;48.436;10.298;2022-08-02T02:51:49;96481.41;;;18.58;100.00
39141;BME280;24875;48.436;10.298;2022-08-02T02:54:16;96488.19;;;18.36;100.00
39141;BME280;24875;48.436;10.298;2022-08-02T02:56:44;96485.22;;;18.44;100.00
39141;BME280;24875;48.436;10.298;2022-08-02T02:59:12;96486.72;;;18.40;100.00
39141;BME280;24875;48.436;10.298;2022-08-02T03:01:39;96480.81;;;18.32;100.00
39141;BME280;24875;48.436;10.298;2022-08-02T03:04:08;96486.47;;;18.41;100.00
39141;BME280;24875;48.436;10.298;2022-08-02T03:06:36;96483.22;;;18.39;100.00
39141;BME280;24875;48.436;10.298;2022-08-02T03:09:04;96482.16;;;18.47;100.00
39141;BME280;24875;48.436;10.298;2022-08-02T03:11:31;96487.78;;;18.33;100.00
39141;BME280;24875;48.436;10.298;2022-08-02T03:14:00;96485.56;;;18.30;100.00
39141;BME280;24875;48.436;10.298;2022-08-02T03:16:27;96487.84;;;18.26;100.00
39141;BME280;24875;48.436;10.298;2022-08-02T03:18:55;96490.91;;;18.30;100.00
39141;BME280;24875;48.436;10.298;2022-08-02T03:21:23;96492.38;;;18.26;100.00
39141;BME280;24875;48.436;10.298;2022-08-02T03:23:49;96485.84;;;18.22;100.00
39141;BME280;24875;48.436;10.298;2022-08-02T03:26:17;96486.53;;;18.35;100.00
39141;BME280;24875;48.436;10.298;2022-08-02T03:28:44;96486.28;;;18.19;100.00
39141;BME280;24875;48.436;10.298;2022-08-02T03:31:10;96484.97;;;18.28;100.00
39141;BME280;24875;48.436;10.298;2022-08-02T03:33:38;96490.25;;;18.34;100.00
39141;BME280;24875;48.436;10.298;2022-08-02T03:36:10;96492.22;;;18.21;100.00
39141;BME280;24875;48.436;10.298;2022-08-02T03:38:38;96498.75;;;18.25;100.00
39141;BME280;24875;48.436;10.298;2022-08-02T03:41:06;96501.31;;;18.37;100.00
39141;BME280;24875;48.436;10.298;2022-08-02T03:43:35;96503.22;;;18.31;100.00
39141;BME280;24875;48.436;10.298;2022-08-02T03:46:03;96502.28;;;18.12;100.00
39141;BME280;24875;48.436;10.298;2022-08-02T03:48:32;96500.22;;;18.21;100.00
39141;BME280;24875;48.436;10.298;2022-08-02T03:50:59;96492.72;;;18.05;100.00
39141;BME280;24875;48.436;10.298;2022-08-02T03:53:25;96495.72;;;18.15;100.00
39141;BME280;24875;48.436;10.298;2022-08-02T03:55:52;96489.50;;;18.27;100.00
39141;BME280;24875;48.436;10.298;2022-08-02T03:58:22;96488.59;;;18.57;100.00
39141;BME280;24875;48.436;10.298;2022-08-02T04:00:51;96487.03;;;18.50;100.00
39141;BME280;24875;48.436;10.298;2022-08-02T04:03:17;96494.84;;;18.27;100.00
39141;BME280;24875;48.436;10.298;2022-08-02T04:05:44;96506.31;;;18.28;100.00
39141;BME280;24875;48.436;10.298;2022-08-02T04:08:10;96500.91;;;18.34;100.00
39141;BME280;24875;48.436;10.298;2022-08-02T04:10:37;96511.06;;;18.26;100.00
39141;BME280;24875;48.436;10.298;2022-08-02T04:13:23;96515.63;;;18.19;100.00
39141;BME280;24875;48.436;10.298;2022-08-02T04:15:54;96512.09;;;18.25;100.00
39141;BME280;24875;48.436;10.298;2022-08-02T04:18:26;96511.47;;;18.23;100.00
39141;BME280;24875;48.436;10.298;2022-08-02T04:20:54;96508.44;;;18.19;100.00
39141;BME280;24875;48.436;10.298;2022-08-02T04:23:22;96511.72;;;18.15;100.00
39141;BME280;24875;48.436;10.298;2022-08-02T04:25:50;96513.34;;;18.16;100.00
39141;BME280;24875;48.436;10.298;2022-08-02T04:28:17;96512.44;;;17.67;100.00
39141;BME280;24875;48.436;10.298;2022-08-02T04:30:45;96523.81;;;17.86;100.00
39141;BME280;24875;48.436;10.298;2022-08-02T04:33:13;96521.56;;;17.90;100.00
39141;BME280;24875;48.436;10.298;2022-08-02T04:35:40;96518.19;;;17.70;100.00
39141;BME280;24875;48.436;10.298;2022-08-02T04:38:07;96522.09;;;17.98;100.00
39141;BME280;24875;48.436;10.298;2022-08-02T04:40:34;96524.72;;;18.05;100.00
39141;BME280;24875;48.436;10.298;2022-08-02T04:43:01;96519.13;;;18.13;100.00
39141;BME280;24875;48.436;10.298;2022-08-02T04:45:28;96525.25;;;18.20;100.00
39141;BME280;24875;48.436;10.298;2022-08-02T04:47:55;96519.13;;;18.19;100.00
39141;BME280;24875;48.436;10.298;2022-08-02T04:50:23;96516.50;;;18.37;100.00
39141;BME280;24875;48.436;10.298;2022-08-02T04:52:50;96515.78;;;18.24;100.00
39141;BME280;24875;48.436;10.298;2022-08-02T04:55:16;96505.44;;;18.33;100.00
39141;BME280;24875;48.436;10.298;2022-08-02T04:57:42;96513.63;;;18.38;100.00
39141;BME280;24875;48.436;10.298;2022-08-02T05:00:22;96513.06;;;18.54;100.00
39141;BME280;24875;48.436;10.298;2022-08-02T05:02:49;96517.53;;;18.60;100.00
39141;BME280;24875;48.436;10.298;2022-08-02T05:05:17;96516.09;;;18.58;100.00
39141;BME280;24875;48.436;10.298;2022-08-02T05:07:45;96516.53;;;18.79;100.00
39141;BME280;24875;48.436;10.298;2022-08-02T05:10:11;96514.88;;;18.78;100.00
39141;BME280;24875;48.436;10.298;2022-08-02T05:12:38;96512.06;;;18.73;100.00
39141;BME280;24875;48.436;10.298;2022-08-02T05:15:06;96507.09;;;18.77;100.00
39141;BME280;24875;48.436;10.298;2022-08-02T05:17:33;96517.06;;;18.88;100.00
39141;BME280;24875;48.436;10.298;2022-08-02T05:19:59;96509.09;;;18.81;100.00
39141;BME280;24875;48.436;10.298;2022-08-02T05:22:26;96506.44;;;18.99;100.00
39141;BME280;24875;48.436;10.298;2022-08-02T05:24:54;96506.47;;;19.17;100.00
39141;BME280;24875;48.436;10.298;2022-08-02T05:27:20;96508.88;;;19.07;100.00
39141;BME280;24875;48.436;10.298;2022-08-02T05:29:47;96508.72;;;19.20;100.00
39141;BME280;24875;48.436;10.298;2022-08-02T05:32:14;96508.56;;;19.33;100.00
39141;BME280;24875;48.436;10.298;2022-08-02T05:34:40;96512.41;;;19.37;100.00
39141;BME280;24875;48.436;10.298;2022-08-02T05:37:07;96513.88;;;19.33;100.00
39141;BME280;24875;48.436;10.298;2022-08-02T05:39:33;96516.34;;;19.34;100.00
39141;BME280;24875;48.436;10.298;2022-08-02T05:42:01;96513.81;;;19.39;100.00
39141;BME280;24875;48.436;10.298;2022-08-02T05:44:27;96518.06;;;19.29;100.00
39141;BME280;24875;48.436;10.298;2022-08-02T05:46:54;96518.06;;;19.29;100.00
39141;BME280;24875;48.436;10.298;2022-08-02T05:49:20;96512.41;;;19.19;100.00
39141;BME280;24875;48.436;10.298;2022-08-02T05:51:51;96516.13;;;19.18;100.00
39141;BME280;24875;48.436;10.298;2022-08-02T05:54:26;96510.03;;;19.47;100.00
39141;BME280;24875;48.436;10.298;2022-08-02T05:56:55;96512.09;;;19.45;100.00
39141;BME280;24875;48.436;10.298;2022-08-02T05:59:32;96513.72;;;19.46;100.00
39141;BME280;24875;48.436;10.298;2022-08-02T06:02:02;96517.28;;;19.40;100.00
39141;BME280;24875;48.436;10.298;2022-08-02T06:04:32;96504.19;;;19.67;100.00
39141;BME280;24875;48.436;10.298;2022-08-02T06:07:03;96509.94;;;19.82;100.00
39141;BME280;24875;48.436;10.298;2022-08-02T06:09:32;96516.56;;;20.09;100.00
39141;BME280;24875;48.436;10.298;2022-08-02T06:12:00;96520.66;;;20.12;100.00
39141;BME280;24875;48.436;10.298;2022-08-02T06:14:31;96523.94;;;20.36;100.00
39141;BME280;24875;48.436;10.298;2022-08-02T06:16:59;96524.72;;;20.14;100.00
39141;BME280;24875;48.436;10.298;2022-08-02T06:19:26;96519.13;;;20.04;100.00
39141;BME280;24875;48.436;10.298;2022-08-02T06:21:53;96517.81;;;19.77;100.00
39141;BME280;24875;48.436;10.298;2022-08-02T06:24:20;96513.28;;;20.07;100.00
39141;BME280;24875;48.436;10.298;2022-08-02T06:26:47;96514.13;;;20.08;100.00
39141;BME280;24875;48.436;10.298;2022-08-02T06:29:17;96513.13;;;20.20;100.00
39141;BME280;24875;48.436;10.298;2022-08-02T06:31:47;96502.53;;;20.36;100.00
39141;BME280;24875;48.436;10.298;2022-08-02T06:34:14;96491.13;;;20.29;100.00
39141;BME280;24875;48.436;10.298;2022-08-02T06:36:46;96504.78;;;20.62;100.00
39141;BME280;24875;48.436;10.298;2022-08-02T06:39:19;96491.16;;;20.64;100.00
39141;BME280;24875;48.436;10.298;2022-08-02T06:41:48;96499.69;;;20.72;100.00
39141;BME280;24875;48.436;10.298;2022-08-02T06:44:17;96509.94;;;20.86;100.00
39141;BME280;24875;48.436;10.298;2022-08-02T06:46:43;96502.34;;;20.95;100.00
39141;BME280;24875;48.436;10.298;2022-08-02T06:49:11;96499.53;;;21.01;100.00
39141;BME280;24875;48.436;10.298;2022-08-02T06:51:38;96496.97;;;21.06;100.00
39141;BME280;24875;48.436;10.298;2022-08-02T06:54:05;96515.97;;;21.16;100.00
39141;BME280;24875;48.436;10.298;2022-08-02T06:56:32;96513.38;;;21.33;100.00
39141;BME280;24875;48.436;10.298;2022-08-02T06:58:58;96517.34;;;21.30;100.00
39141;BME280;24875;48.436;10.298;2022-08-02T07:01:25;96511.88;;;21.25;100.00
39141;BME280;24875;48.436;10.298;2022-08-02T07:03:51;96517.22;;;21.25;100.00
39141;BME280;24875;48.436;10.298;2022-08-02T07:06:20;96521.09;;;21.18;100.00
39141;BME280;24875;48.436;10.298;2022-08-02T07:08:46;96527.25;;;21.30;100.00
39141;BME280;24875;48.436;10.298;2022-08-02T07:11:13;96525.13;;;21.43;100.00
39141;BME280;24875;48.436;10.298;2022-08-02T07:13:40;96524.72;;;21.23;100.00
39141;BME280;24875;48.436;10.298;2022-08-02T07:16:06;96530.75;;;21.30;100.00
39141;BME280;24875;48.436;10.298;2022-08-02T07:18:33;96526.41;;;21.52;100.00
39141;BME280;24875;48.436;10.298;2022-08-02T07:21:00;96535.94;;;21.48;100.00
39141;BME280;24875;48.436;10.298;2022-08-02T07:23:29;96526.28;;;21.58;100.00
39141;BME280;24875;48.436;10.298;2022-08-02T07:25:56;96520.97;;;21.75;100.00
39141;BME280;24875;48.436;10.298;2022-08-02T07:28:23;96523.75;;;21.80;98.30
39141;BME280;24875;48.436;10.298;2022-08-02T07:30:50;96517.69;;;22.01;98.68
39141;BME280;24875;48.436;10.298;2022-08-02T07:33:17;96522.31;;;21.89;93.83
39141;BME280;24875;48.436;10.298;2022-08-02T07:35:43;96519.13;;;22.19;94.72
39141;BME280;24875;48.436;10.298;2022-08-02T07:38:10;96513.84;;;22.24;95.08
39141;BME280;24875;48.436;10.298;2022-08-02T07:40:38;96510.56;;;22.50;95.22
39141;BME280;24875;48.436;10.298;2022-08-02T07:43:04;96515.47;;;22.53;93.55
39141;BME280;24875;48.436;10.298;2022-08-02T07:45:32;96513.22;;;22.83;92.05
39141;BME280;24875;48.436;10.298;2022-08-02T07:47:58;96514.63;;;22.85;91.96
39141;BME280;24875;48.436;10.298;2022-08-02T07:50:25;96512.88;;;23.12;90.23
39141;BME280;24875;48.436;10.298;2022-08-02T07:52:52;96520.38;;;23.10;89.36
39141;BME280;24875;48.436;10.298;2022-08-02T07:55:19;96508.78;;;23.26;90.24
39141;BME280;24875;48.436;10.298;2022-08-02T07:57:46;96510.91;;;23.45;90.71
39141;BME280;24875;48.436;10.298;2022-08-02T08:00:14;96507.28;;;23.35;91.78
39141;BME280;24875;48.436;10.298;2022-08-02T08:02:41;96506.50;;;23.34;90.79
39141;BME280;24875;48.436;10.298;2022-08-02T08:05:08;96515.69;;;23.38;88.60
39141;BME280;24875;48.436;10.298;2022-08-02T08:07:35;96512.22;;;23.43;91.48
39141;BME280;24875;48.436;10.298;2022-08-02T08:10:02;96510.66;;;23.68;89.24
39141;BME280;24875;48.436;10.298;2022-08-02T08:12:29;96518.94;;;23.62;87.62
39141;BME280;24875;48.436;10.298;2022-08-02T08:14:57;96518.75;;;23.90;86.97
39141;BME280;24875;48.436;10.298;2022-08-02T08:17:23;96519.66;;;23.57;87.03
39141;BME280;24875;48.436;10.298;2022-08-02T08:19:50;96520.31;;;23.64;86.67
39141;BME280;24875;48.436;10.298;2022-08-02T08:22:16;96509.53;;;23.64;90.97
39141;BME280;24875;48.436;10.298;2022-08-02T08:24:43;96507.78;;;23.53;88.60
39141;BME280;24875;48.436;10.298;2022-08-02T08:27:09;96514.66;;;23.44;85.44
39141;BME280;24875;48.436;10.298;2022-08-02T08:29:39;96519.63;;;23.52;84.12
39141;BME280;24875;48.436;10.298;2022-08-02T08:32:07;96515.25;;;23.68;85.29
39141;BME280;24875;48.436;10.298;2022-08-02T08:34:33;96522.63;;;23.34;89.38
39141;BME280;24875;48.436;10.298;2022-08-02T08:37:00;96520.63;;;23.68;84.93
39141;BME280;24875;48.436;10.298;2022-08-02T08:39:27;96523.09;;;23.69;85.57
39141;BME280;24875;48.436;10.298;2022-08-02T08:41:54;96520.59;;;23.84;84.38
39141;BME280;24875;48.436;10.298;2022-08-02T08:44:20;96517.31;;;23.82;88.94
39141;BME280;24875;48.436;10.298;2022-08-02T08:46:48;96524.31;;;24.04;81.04
39141;BME280;24875;48.436;10.298;2022-08-02T08:49:21;96523.84;;;24.39;79.69
39141;BME280;24875;48.436;10.298;2022-08-02T08:51:50;96517.25;;;24.51;78.99
39141;BME280;24875;48.436;10.298;2022-08-02T08:54:23;96528.47;;;24.74;82.20
39141;BME280;24875;48.436;10.298;2022-08-02T08:56:50;96534.09;;;24.68;82.92
39141;BME280;24875;48.436;10.298;2022-08-02T08:59:17;96534.44;;;24.76;78.93
39141;BME280;24875;48.436;10.298;2022-08-02T09:01:44;96529.88;;;24.82;80.16
39141;BME280;24875;48.436;10.298;2022-08-02T09:04:11;96529.38;;;24.54;81.85
39141;BME280;24875;48.436;10.298;2022-08-02T09:06:39;96528.06;;;24.87;83.07
39141;BME280;24875;48.436;10.298;2022-08-02T09:09:06;96532.88;;;25.17;79.01
39141;BME280;24875;48.436;10.298;2022-08-02T09:11:33;96531.59;;;25.29;79.81
39141;BME280;24875;48.436;10.298;2022-08-02T09:14:01;96536.53;;;25.47;78.50
39141;BME280;24875;48.436;10.298;2022-08-02T09:16:32;96533.28;;;25.04;77.19
39141;BME280;24875;48.436;10.298;2022-08-02T09:19:00;96545.09;;;25.34;74.40
39141;BME280;24875;48.436;10.298;2022-08-02T09:21:36;96540.97;;;25.21;73.33
39141;BME280;24875;48.436;10.298;2022-08-02T09:24:14;96544.13;;;25.50;74.24
39141;BME280;24875;48.436;10.298;2022-08-02T09:26:41;96539.78;;;25.44;71.00
39141;BME280;24875;48.436;10.298;2022-08-02T09:29:09;96544.59;;;25.37;74.55
39141;BME280;24875;48.436;10.298;2022-08-02T09:31:36;96546.72;;;25.30;73.02
39141;BME280;24875;48.436;10.298;2022-08-02T09:34:02;96545.56;;;24.85;77.29
39141;BME280;24875;48.436;10.298;2022-08-02T09:36:38;96545.56;;;25.21;73.50
39141;BME280;24875;48.436;10.298;2022-08-02T09:39:07;96547.28;;;25.32;74.04
39141;BME280;24875;48.436;10.298;2022-08-02T09:41:36;96538.34;;;25.73;74.24
39141;BME280;24875;48.436;10.298;2022-08-02T09:46:34;96526.38;;;26.35;71.29
39141;BME280;24875;48.436;10.298;2022-08-02T09:49:04;96540.47;;;26.56;73.77
39141;BME280;24875;48.436;10.298;2022-08-02T09:51:33;96536.69;;;26.67;73.19
39141;BME280;24875;48.436;10.298;2022-08-02T09:54:01;96535.91;;;26.67;69.31
39141;BME280;24875;48.436;10.298;2022-08-02T09:56:39;96529.38;;;26.48;69.16
39141;BME280;24875;48.436;10.298;2022-08-02T09:59:06;96526.00;;;26.01;67.79
39141;BME280;24875;48.436;10.298;2022-08-02T10:01:33;96517.63;;;26.08;67.98
39141;BME280;24875;48.436;10.298;2022-08-02T10:04:02;96521.81;;;26.40;65.22
39141;BME280;24875;48.436;10.298;2022-08-02T10:06:29;96516.88;;;26.22;68.19
39141;BME280;24875;48.436;10.298;2022-08-02T10:08:56;96515.09;;;25.72;70.48
39141;BME280;24875;48.436;10.298;2022-08-02T10:11:24;96512.03;;;25.48;70.47
39141;BME280;24875;48.436;10.298;2022-08-02T10:13:53;96519.81;;;25.45;71.12
39141;BME280;24875;48.436;10.298;2022-08-02T10:16:21;96517.75;;;25.16;71.98
39141;BME280;24875;48.436;10.298;2022-08-02T10:18:48;96513.09;;;25.06;71.74
39141;BME280;24875;48.436;10.298;2022-08-02T10:21:22;96513.50;;;25.24;72.21
39141;BME280;24875;48.436;10.298;2022-08-02T10:23:54;96499.69;;;25.16;71.93
39141;BME280;24875;48.436;10.298;2022-08-02T10:26:25;96499.28;;;25.44;72.35
39141;BME280;24875;48.436;10.298;2022-08-02T10:28:53;96502.63;;;25.66;70.53
39141;BME280;24875;48.436;10.298;2022-08-02T10:31:23;96492.47;;;25.87;68.38
39141;BME280;24875;48.436;10.298;2022-08-02T10:33:51;96504.47;;;26.31;68.29
39141;BME280;24875;48.436;10.298;2022-08-02T10:36:20;96491.53;;;26.73;67.53
39141;BME280;24875;48.436;10.298;2022-08-02T10:38:47;96489.66;;;26.68;65.48
39141;BME280;24875;48.436;10.298;2022-08-02T10:41:41;96490.97;;;26.91;70.17
39141;BME280;24875;48.436;10.298;2022-08-02T10:44:19;96491.78;;;27.16;63.96
39141;BME280;24875;48.436;10.298;2022-08-02T10:46:45;96486.34;;;27.26;59.74
39141;BME280;24875;48.436;10.298;2022-08-02T10:49:14;96476.16;;;27.76;63.55
39141;BME280;24875;48.436;10.298;2022-08-02T10:52:14;96463.66;;;27.85;62.69
39141;BME280;24875;48.436;10.298;2022-08-02T10:54:42;96468.53;;;27.88;65.25
39141;BME280;24875;48.436;10.298;2022-08-02T10:57:17;96464.75;;;27.84;60.47
39141;BME280;24875;48.436;10.298;2022-08-02T10:59:45;96472.22;;;27.44;61.44
39141;BME280;24875;48.436;10.298;2022-08-02T11:02:12;96469.75;;;27.52;60.61
39141;BME280;24875;48.436;10.298;2022-08-02T11:05:00;96471.88;;;27.70;62.61
39141;BME280;24875;48.436;10.298;2022-08-02T11:07:32;96463.06;;;27.98;63.43
39141;BME280;24875;48.436;10.298;2022-08-02T11:13:05;96458.38;;;28.51;59.87
39141;BME280;24875;48.436;10.298;2022-08-02T11:15:58;96461.19;;;28.70;57.69
39141;BME280;24875;48.436;10.298;2022-08-02T11:19:02;96463.31;;;29.06;56.05
39141;BME280;24875;48.436;10.298;2022-08-02T11:21:32;96455.41;;;28.81;56.75
39141;BME280;24875;48.436;10.298;2022-08-02T11:24:24;96460.75;;;28.25;57.50
39141;BME280;24875;48.436;10.298;2022-08-02T11:26:52;96454.00;;;28.55;58.20
39141;BME280;24875;48.436;10.298;2022-08-02T11:29:18;96449.41;;;28.51;56.90
39141;BME280;24875;48.436;10.298;2022-08-02T11:31:47;96452.16;;;28.46;59.18
39141;BME280;24875;48.436;10.298;2022-08-02T11:34:15;96445.25;;;28.30;57.79
39141;BME280;24875;48.436;10.298;2022-08-02T11:36:43;96443.66;;;28.57;58.28
39141;BME280;24875;48.436;10.298;2022-08-02T11:39:11;96447.41;;;28.94;58.48
39141;BME280;24875;48.436;10.298;2022-08-02T11:41:38;96443.06;;;29.22;54.31
39141;BME280;24875;48.436;10.298;2022-08-02T11:44:05;96447.31;;;29.56;52.42
39141;BME280;24875;48.436;10.298;2022-08-02T11:46:32;96442.75;;;29.93;54.12
39141;BME280;24875;48.436;10.298;2022-08-02T11:49:15;96429.28;;;29.83;52.00
39141;BME280;24875;48.436;10.298;2022-08-02T11:51:56;96434.91;;;30.10;54.45
39141;BME280;24875;48.436;10.298;2022-08-02T11:54:26;96428.31;;;29.74;50.41
39141;BME280;24875;48.436;10.298;2022-08-02T11:56:53;96441.75;;;29.43;52.77
39141;BME280;24875;48.436;10.298;2022-08-02T11:59:20;96435.63;;;28.81;51.46
39141;BME280;24875;48.436;10.298;2022-08-02T12:01:47;96427.75;;;29.54;48.09
39141;BME280;24875;48.436;10.298;2022-08-02T12:04:19;96429.81;;;29.85;49.31
39141;BME280;24875;48.436;10.298;2022-08-02T12:06:56;96432.47;;;30.09;49.38
39141;BME280;24875;48.436;10.298;2022-08-02T12:09:24;96436.09;;;29.81;46.65
39141;BME280;24875;48.436;10.298;2022-08-02T12:11:52;96433.81;;;29.69;47.95
39141;BME280;24875;48.436;10.298;2022-08-02T12:14:18;96431.50;;;29.81;48.77
39141;BME280;24875;48.436;10.298;2022-08-02T12:16:46;96435.78;;;29.87;48.27
39141;BME280;24875;48.436;10.298;2022-08-02T12:19:33;96430.88;;;29.66;48.31
39141;BME280;24875;48.436;10.298;2022-08-02T12:22:08;96434.19;;;29.86;52.94
39141;BME280;24875;48.436;10.298;2022-08-02T12:24:35;96431.81;;;29.98;45.25
39141;BME280;24875;48.436;10.298;2022-08-02T12:27:02;96430.97;;;29.79;48.44
39141;BME280;24875;48.436;10.298;2022-08-02T12:29:30;96435.41;;;30.30;45.94
39141;BME280;24875;48.436;10.298;2022-08-02T12:31:56;96431.50;;;30.55;48.27
39141;BME280;24875;48.436;10.298;2022-08-02T12:34:24;96437.91;;;30.95;47.90
39141;BME280;24875;48.436;10.298;2022-08-02T12:37:04;96426.75;;;31.37;47.80
39141;BME280;24875;48.436;10.298;2022-08-02T12:39:39;96430.19;;;30.34;43.63
39141;BME280;24875;48.436;10.298;2022-08-02T12:42:07;96429.31;;;30.20;45.05
39141;BME280;24875;48.436;10.298;2022-08-02T12:44:36;96424.22;;;30.32;46.27
39141;BME280;24875;48.436;10.298;2022-08-02T12:47:05;96423.47;;;30.13;44.33
39141;BME280;24875;48.436;10.298;2022-08-02T12:49:32;96426.81;;;30.05;42.74
39141;BME280;24875;48.436;10.298;2022-08-02T12:51:59;96423.47;;;30.13;44.95
39141;BME280;24875;48.436;10.298;2022-08-02T12:54:29;96425.19;;;30.41;48.22
39141;BME280;24875;48.436;10.298;2022-08-02T12:56:59;96424.97;;;30.56;44.89
39141;BME280;24875;48.436;10.298;2022-08-02T12:59:36;96423.88;;;30.70;43.35